HOURLY OBS INDEX

041

Darling Downs - east

APPLETHORPE

Site: 041175
Alt: 871.6m
118km S of TOOWOOMBA


  Time     Wind        Temp  DP   Baro     Rain since   Rain past  Vis(m), Cloud(base in m), Weather
  local        km/h                         9am  last   hr   10m    
Thu 09:00  ESE  9/ 17  10.8  4.2  1026.9    0.0   0.0   0.0   0.0   ----- 
Thu 09:30    E  9/ 17  11.8  3.9  1027.2    0.0   0.0   0.0   0.0   ----- 
Thu 10:00    E  9/ 19  12.6  3.9  1027.1    0.0   0.0   0.0   0.0   ----- 
Thu 10:30    E  9/ 17  13.7  3.8  1026.8    0.0   0.0   0.0   0.0   ----- 
Thu 11:00    E  9/ 15  13.8  3.7  1026.7    0.0   0.0   0.0   0.0   ----- 
Thu 11:30    E  7/ 13  14.4  4.5  1026.5    0.0   0.0   0.0   0.0   ----- 
Thu 12:00  ENE  7/ 13  15.2  4.3  1026.0    0.0   0.0   0.0   0.0   ----- 
Thu 12:30    E  7/ 13  14.9  4.4  1025.6    0.0   0.0   0.0   0.0   ----- 
Thu 13:00  ESE  7/ 15  15.5  4.4  1025.3    0.0   0.0   0.0   0.0   ----- 
Thu 13:30  ENE  9/ 19  17.0  4.4  1025.0    0.0   0.0   0.0   0.0   ----- 
Thu 14:00  ENE  9/ 15  16.1  4.7  1025.0    0.0   0.0   0.0   0.0   ----- 

BRISBANE WEST WELLCAMP AIRPORT

Site: 041BWW
Alt: 530m
17km W of TOOWOOMBA


  Time     Wind        Temp  DP   Baro     Rain since   Rain past  Vis(m), Cloud(base in m), Weather
  local        km/h                         9am  last   hr   10m    
Thu 09:00  SSE  7/ 13  11.7  3.5  1025.7    0.0   0.0   0.0   0.0   10000 
Thu 09:30  SSE  6/  9  14.5  3.6  1025.6    0.0   0.0   0.0   0.0   10000 
Thu 10:00  SSE  7/ 13  16.1  3.2  1025.5    0.0   0.0   0.0   0.0   10000 
Thu 10:30  SSW  6/ 11  17.2  3.8  1025.4    0.0   0.0   0.0   0.0   10000 
Thu 11:00  SSW  6/ 11  18.0  3.9  1025.2    0.0   0.0   0.0   0.0   10000 
Thu 11:30  ESE 13/ 22  19.0  3.2  1024.8    0.0   0.0   0.0   0.0   10000 
Thu 12:00    S  9/ 17  19.3  3.1  1024.1    0.0   0.0   0.0   0.0   10000 
Thu 12:30   SE 13/ 26  19.8  2.2  1023.7    0.0   0.0   0.0   0.0   10000 
Thu 13:00    E 17/ 22  20.1  2.9  1023.4    0.0   0.0   0.0   0.0   10000 
Thu 13:30    E  9/ 15  19.8  2.6  1023.0    0.0   0.0   0.0   0.0   10000 
Thu 14:00  ENE  7/ 20  20.1  2.9  1022.9    0.0   0.0   0.0   0.0   10000 

DALBY AIRPORT

Site: 041522
Alt: 343.9m
3km NNE of DALBY


  Time     Wind        Temp  DP   Baro     Rain since   Rain past  Vis(m), Cloud(base in m), Weather
  local        km/h                         9am  last   hr   10m    
Thu 09:00  ESE 11/ 13  12.2  3.2  1026.0    0.0   0.0   0.0   0.0   ----- 
Thu 09:30  ESE 13/ 17  14.5  3.0  1025.9    0.0   0.0   0.0   0.0   ----- 
Thu 10:00  ESE 15/ 19  16.1  2.9  1025.8    0.0   0.0   0.0   0.0   ----- 
Thu 10:30  ESE 13/ 19  17.4  2.2  1025.7    0.0   0.0   0.0   0.0   ----- 
Thu 11:00    E 13/ 32  18.5  1.5  1025.4    0.0   0.0   0.0   0.0   ----- 
Thu 11:30   SE 11/ 17  19.3 -0.1  1025.0    0.0   0.0   0.0   0.0   ----- 
Thu 12:00    S  9/ 17  19.7  0.2  1024.5    0.0   0.0   0.0   0.0   ----- 
Thu 12:30    S  6/ 17  20.1 -3.5  1023.9    0.0   0.0   0.0   0.0   ----- 
Thu 13:00    W  4/  9  20.5 -3.2  1023.4    0.0   0.0   0.0   0.0   ----- 
Thu 13:30  SSW  7/ 15  21.9 -2.0  1022.9    0.0   0.0   0.0   0.0   ----- 
Thu 14:00  WSW  6/ 11  21.1 -2.7  1022.8    0.0   0.0   0.0   0.0   ----- 

OAKEY AERO

Site: 041359
Alt: 405.7m
27km NW of TOOWOOMBA


  Time     Wind        Temp  DP   Baro     Rain since   Rain past  Vis(m), Cloud(base in m), Weather
  local        km/h                         9am  last   hr   10m    
Thu 09:00    E  6/  9  11.1  3.6  1026.2    0.0   0.0   0.0   0.0   10000 
Thu 09:30  ENE  6/  7  13.9  3.7  1026.2    0.0   0.0   0.0   0.0   10000 
Thu 10:00   SE  4/  9  15.3  2.5  1026.1    0.0   0.0   0.0   0.0   10000 
Thu 10:30  ESE  4/ 11  16.8  3.1  1025.8    0.0   0.0   0.0   0.0   10000 
Thu 11:00    E  9/ 17  17.7  2.8  1025.5    0.0   0.0   0.0   0.0  *10000|FE1350sc 
Thu 11:30    E 15/ 19  19.1  3.3  1025.1    0.0   0.0   0.0   0.0  *10000|FE1440cu 
Thu 12:00  ENE 13/ 19  18.9  2.7  1024.7    0.0   0.0   0.0   0.0   10000 
Thu 12:00  ENE 13/ 19  18.9  2.7  1024.7    0.0   0.0  ----   0.0   10000 
Thu 12:30    E  9/ 17  19.5  3.2  1024.2    0.0   0.0   0.0   0.0   10000 
Thu 13:00  ENE  7/ 11  19.7  2.6  1023.7    0.0   0.0   0.0   0.0   10000 
Thu 13:30  ENE 11/ 17  20.1  2.9  1023.4    0.0   0.0   0.0   0.0   10000 
Thu 14:00    C  6/---  20.0  3.3  1023.2    0.0   0.0   0.0   0.0   10000 

TOOWOOMBA AIRPORT

Site: 041529
Alt: 640.9m
4km WNW of TOOWOOMBA


  Time     Wind        Temp  DP   Baro     Rain since   Rain past  Vis(m), Cloud(base in m), Weather
  local        km/h                         9am  last   hr   10m    
Thu 09:00    E 13/ 17  13.2  3.6  1027.3    0.0   0.0   0.0   0.0   10000 
Thu 09:30    E 11/ 15  13.8  3.0  1027.4    0.0   0.0   0.0   0.0   10000 
Thu 10:00    E 15/ 20  14.5  3.0  1027.4    0.0   0.0   0.0   0.0   10000 
Thu 10:30  ENE 13/ 19  15.3  3.8  1027.3    0.0   0.0   0.0   0.0   10000 
Thu 11:00    E 13/ 17  15.7  3.5  1027.2    0.0   0.0   0.0   0.0   10000 
Thu 11:30    E 11/ 19  16.4  3.5  1026.9    0.0   0.0   0.0   0.0   10000 
Thu 12:00  ESE 15/ 24  16.8  2.0  1026.3    0.0   0.0   0.0   0.0   10000 
Thu 12:30  ENE 15/ 20  16.8  2.0  1025.8    0.0   0.0   0.0   0.0   10000 
Thu 13:00  ENE 13/ 19  17.3  2.5  1025.7    0.0   0.0   0.0   0.0   10000 
Thu 13:30  ENE 11/ 20  17.3  2.1  1025.3    0.0   0.0   0.0   0.0   10000 
Thu 14:00    E 11/ 19  17.2  2.4  1025.3    0.0   0.0   0.0   0.0   10000 

WARWICK

Site: 041525
Alt: 475.4m
73km SSE of TOOWOOMBA


  Time     Wind        Temp  DP   Baro     Rain since   Rain past  Vis(m), Cloud(base in m), Weather
  local        km/h                         9am  last   hr   10m    
Thu 09:00    C  0/  4  11.3  3.8  1026.3    0.0   0.0   0.0   0.0   ----- 
Thu 09:30  SSE 11/ 17  14.5  4.3  1026.3    0.0   0.0   0.0   0.0   ----- 
Thu 10:00  SSE 13/ 22  15.3  4.9  1026.0    0.0   0.0   0.0   0.0   ----- 
Thu 10:30  SSE 15/ 22  15.7  5.2  1025.9    0.0   0.0   0.0   0.0   ----- 
Thu 11:00  SSE 19/ 30  16.1  5.2  1025.7    0.0   0.0   0.0   0.0   ----- 
Thu 11:30  SSE 22/ 32  16.7  6.0  1025.3    0.0   0.0   0.0   0.0   ----- 
Thu 12:00  SSE 19/ 32  16.8  6.2  1024.9    0.0   0.0   0.0   0.0   ----- 
Thu 12:30  SSE 17/ 28  17.7  6.1  1024.3    0.0   0.0   0.0   0.0   ----- 
Thu 13:00  SSE 17/ 24  18.6  6.1  1024.1    0.0   0.0   0.0   0.0   ----- 
Thu 13:30  SSE 20/ 30  18.1  6.2  1023.7    0.0   0.0   0.0   0.0   ----- 
Thu 14:00  SSE 19/ 32  18.0  6.3  1023.5    0.0   0.0   0.0   0.0   -----